Time;durP1;ratioP1;P1;durP2;ratioP2;P2;SDS_P1;SDS_P2;PMS_P1;PMS_P2;Temp;Humidity;BMP_temperature;BMP_pressure;BME280_temperature;BME280_humidity;BME280_pressure;Samples;Min_cycle;Max_cycle;Signal;HPM_P1;HPM_P2
2021/12/01 00:01:42;;;;;;;43.95;14.52;;;8.30;99.90;;;;;;4999543;28;20471;-67
2021/12/01 00:04:08;;;;;;;57.63;16.10;;;8.40;99.90;;;;;;5016372;28;20073;-68
2021/12/01 00:06:35;;;;;;;54.83;16.13;;;8.30;99.90;;;;;;4998784;28;20138;-67
2021/12/01 00:09:01;;;;;;;39.72;15.35;;;8.40;99.90;;;;;;4998494;28;20049;-67
2021/12/01 00:11:27;;;;;;;53.83;17.83;;;8.50;99.90;;;;;;4998643;28;20046;-69
2021/12/01 00:13:52;;;;;;;42.45;15.80;;;8.50;99.90;;;;;;5015771;28;20088;-68
2021/12/01 00:16:18;;;;;;;38.60;16.25;;;8.50;99.90;;;;;;4999185;28;20045;-67
2021/12/01 00:18:43;;;;;;;49.88;18.40;;;8.50;99.90;;;;;;4999120;28;20045;-68
2021/12/01 00:21:10;;;;;;;46.13;18.38;;;8.60;99.90;;;;;;4998867;28;20049;-68
2021/12/01 00:23:36;;;;;;;53.63;20.00;;;8.60;99.90;;;;;;4998581;28;20056;-67
2021/12/01 00:26:03;;;;;;;66.75;22.27;;;8.60;99.90;;;;;;5015958;28;20497;-69
2021/12/01 00:28:28;;;;;;;54.53;22.42;;;8.70;99.90;;;;;;5017560;28;20041;-70
2021/12/01 00:30:56;;;;;;;61.90;24.30;;;8.70;99.90;;;;;;5035574;28;20049;-68
2021/12/01 00:33:22;;;;;;;54.45;24.73;;;8.70;99.90;;;;;;5017866;28;20103;-67
2021/12/01 00:35:51;;;;;;;94.80;28.33;;;8.70;99.90;;;;;;5035124;28;20123;-68
2021/12/01 00:38:16;;;;;;;68.75;28.10;;;8.80;99.90;;;;;;5035507;28;20041;-67
2021/12/01 00:40:42;;;;;;;73.50;28.40;;;8.80;99.90;;;;;;5018797;28;20135;-68
2021/12/01 00:43:15;;;;;;;72.35;27.92;;;8.80;99.90;;;;;;5034807;28;20049;-67
2021/12/01 00:45:49;;;;;;;75.53;29.75;;;8.80;99.90;;;;;;5018569;28;20061;-67
2021/12/01 00:48:15;;;;;;;79.35;30.27;;;8.80;99.90;;;;;;5035391;28;20068;-68
2021/12/01 00:50:40;;;;;;;60.95;29.50;;;8.80;99.90;;;;;;5035115;28;20049;-67
2021/12/01 00:53:08;;;;;;;60.85;28.85;;;8.90;99.90;;;;;;5018180;28;20059;-67
2021/12/01 00:55:34;;;;;;;62.38;29.10;;;8.90;99.90;;;;;;5034909;28;20058;-68
2021/12/01 00:58:00;;;;;;;75.32;31.77;;;8.90;99.90;;;;;;5017831;28;20064;-68
2021/12/01 01:00:27;;;;;;;81.25;31.60;;;8.90;99.90;;;;;;5000295;28;20450;-66
2021/12/01 01:02:56;;;;;;;89.28;32.08;;;8.90;99.90;;;;;;5015669;28;20402;-67
2021/12/01 01:05:21;;;;;;;61.63;29.05;;;8.90;99.90;;;;;;4997910;28;20053;-67
2021/12/01 01:07:47;;;;;;;64.57;29.20;;;9.00;99.90;;;;;;5015309;28;20463;-66
2021/12/01 01:18:26;;;;;;;52.88;25.80;;;9.00;99.90;;;;;;5014929;28;20064;-66
2021/12/01 01:20:52;;;;;;;56.65;26.40;;;9.00;99.90;;;;;;4998439;28;20054;-66
2021/12/01 01:23:17;;;;;;;56.67;26.98;;;8.90;99.90;;;;;;4998013;28;20527;-68
2021/12/01 01:25:43;;;;;;;53.60;26.17;;;9.00;99.90;;;;;;4997954;28;20137;-67
2021/12/01 01:28:09;;;;;;;49.85;24.63;;;9.00;99.90;;;;;;4999027;28;20061;-68
2021/12/01 01:30:35;;;;;;;50.55;24.73;;;9.00;99.90;;;;;;5000461;28;20053;-66
2021/12/01 01:33:00;;;;;;;43.55;23.95;;;9.00;99.90;;;;;;5016999;28;20049;-66
2021/12/01 01:35:26;;;;;;;42.47;23.02;;;9.10;99.90;;;;;;5034698;28;20041;-67
2021/12/01 01:37:52;;;;;;;40.13;22.52;;;9.10;99.90;;;;;;5017458;28;20064;-69
2021/12/01 01:40:18;;;;;;;40.67;21.00;;;9.10;99.90;;;;;;5017911;28;20060;-66
2021/12/01 01:42:44;;;;;;;40.78;20.13;;;9.10;99.90;;;;;;5017234;28;20073;-66
2021/12/01 01:45:09;;;;;;;43.45;20.33;;;9.10;99.90;;;;;;5018118;28;20120;-68
2021/12/01 01:47:35;;;;;;;40.60;19.70;;;9.10;99.90;;;;;;5036710;28;20056;-69
2021/12/01 01:50:25;;;;;;;36.10;17.15;;;9.10;99.90;;;;;;5021191;28;20084;-67
2021/12/01 01:52:50;;;;;;;42.38;17.98;;;9.10;99.90;;;;;;5038448;28;20041;-67
2021/12/01 01:55:16;;;;;;;28.88;15.07;;;9.10;99.90;;;;;;5020538;28;20462;-67
2021/12/01 01:57:44;;;;;;;22.63;13.10;;;9.10;99.90;;;;;;5004805;28;20489;-66
2021/12/01 02:00:10;;;;;;;23.50;12.55;;;9.10;99.90;;;;;;5002811;28;20139;-67
2021/12/01 02:02:36;;;;;;;27.15;11.90;;;9.10;99.90;;;;;;5018576;28;20050;-67
2021/12/01 02:05:02;;;;;;;20.02;10.57;;;9.10;99.90;;;;;;5018810;28;20148;-68
2021/12/01 02:07:27;;;;;;;15.75;7.95;;;9.10;99.90;;;;;;5018760;28;20045;-66
2021/12/01 02:09:53;;;;;;;16.83;6.88;;;9.20;99.90;;;;;;5018398;28;20042;-66
2021/12/01 02:12:18;;;;;;;11.68;4.97;;;9.10;99.90;;;;;;5000812;28;20049;-67
2021/12/01 02:14:44;;;;;;;9.98;5.07;;;9.20;99.90;;;;;;5001410;28;20057;-66
2021/12/01 02:17:10;;;;;;;8.35;4.47;;;9.20;99.90;;;;;;5000913;28;20081;-66
2021/12/01 02:19:38;;;;;;;10.35;5.45;;;9.20;99.90;;;;;;5001131;28;20459;-66
2021/12/01 02:22:04;;;;;;;13.15;5.22;;;9.20;99.90;;;;;;5025525;28;20060;-66
2021/12/01 02:24:30;;;;;;;11.43;5.80;;;9.30;99.90;;;;;;5018376;28;20050;-66
2021/12/01 02:26:56;;;;;;;14.13;7.15;;;9.20;99.90;;;;;;5020403;28;20075;-68
2021/12/01 02:29:27;;;;;;;19.15;7.95;;;9.20;99.90;;;;;;5037591;28;20041;-67
2021/12/01 02:31:54;;;;;;;14.80;7.53;;;9.20;99.90;;;;;;5020651;28;20042;-67
2021/12/01 02:34:23;;;;;;;18.10;7.97;;;9.20;99.90;;;;;;5037742;28;20404;-69
2021/12/01 02:36:57;;;;;;;13.48;6.88;;;9.20;99.90;;;;;;5038067;28;20053;-67
2021/12/01 02:39:24;;;;;;;11.48;5.97;;;9.20;99.90;;;;;;5037059;28;20118;-65
2021/12/01 02:41:53;;;;;;;9.85;5.63;;;9.20;99.90;;;;;;5002110;28;20105;-68
2021/12/01 02:44:20;;;;;;;9.10;5.00;;;9.20;99.90;;;;;;5000505;28;20127;-68
2021/12/01 02:46:46;;;;;;;8.13;5.32;;;9.20;99.90;;;;;;5017739;28;20054;-68
2021/12/01 02:49:12;;;;;;;12.10;5.38;;;9.20;99.90;;;;;;5027067;28;20072;-68
2021/12/01 02:51:38;;;;;;;9.77;4.07;;;9.20;99.90;;;;;;5037513;28;20057;-67
2021/12/01 02:54:06;;;;;;;10.80;4.20;;;9.20;99.90;;;;;;5016567;28;20132;-67
2021/12/01 02:56:33;;;;;;;8.55;4.00;;;9.20;99.90;;;;;;5016207;28;20065;-67
2021/12/01 02:59:01;;;;;;;9.18;4.00;;;9.30;99.90;;;;;;5016308;28;20072;-67
2021/12/01 03:01:27;;;;;;;6.30;3.70;;;9.20;99.90;;;;;;5017583;28;20402;-67
2021/12/01 03:03:53;;;;;;;9.68;3.78;;;9.20;99.90;;;;;;5017806;28;20089;-68
2021/12/01 03:06:21;;;;;;;6.22;3.50;;;9.30;99.90;;;;;;5017266;28;20104;-67
2021/12/01 03:08:47;;;;;;;7.65;2.92;;;9.30;99.90;;;;;;5017214;28;20057;-68
2021/12/01 03:11:14;;;;;;;4.60;2.50;;;9.30;99.90;;;;;;5016981;28;20458;-68
2021/12/01 03:13:40;;;;;;;4.28;2.63;;;9.30;99.90;;;;;;5017315;28;20340;-68
2021/12/01 03:16:06;;;;;;;8.02;2.90;;;9.30;99.90;;;;;;5017329;28;20053;-68
2021/12/01 03:18:32;;;;;;;6.63;2.92;;;9.30;99.90;;;;;;5011810;28;20060;-67
2021/12/01 03:20:58;;;;;;;5.13;3.00;;;9.40;99.90;;;;;;4997387;28;20050;-68
2021/12/01 03:23:25;;;;;;;10.40;2.90;;;9.40;99.90;;;;;;4996862;28;20046;-69
2021/12/01 03:25:51;;;;;;;8.25;3.03;;;9.40;99.90;;;;;;4997713;28;20129;-68
2021/12/01 03:28:18;;;;;;;10.82;2.80;;;9.40;99.90;;;;;;4997058;28;20133;-67
2021/12/01 03:30:44;;;;;;;6.68;2.95;;;9.40;99.90;;;;;;4997446;28;20479;-67
2021/12/01 03:33:12;;;;;;;8.52;3.42;;;9.40;99.90;;;;;;4996364;28;20044;-67
2021/12/01 03:35:40;;;;;;;11.25;3.42;;;9.40;99.90;;;;;;4997374;28;20050;-68
2021/12/01 03:38:07;;;;;;;8.23;2.92;;;9.40;99.90;;;;;;4996120;28;20451;-67
2021/12/01 03:40:33;;;;;;;7.03;2.90;;;9.50;99.90;;;;;;4997313;28;20129;-66
2021/12/01 03:42:59;;;;;;;6.80;2.80;;;9.50;99.90;;;;;;4997409;28;20061;-68
2021/12/01 03:45:25;;;;;;;6.40;2.10;;;9.50;99.90;;;;;;4996156;28;20042;-68
2021/12/01 03:47:51;;;;;;;7.63;1.75;;;9.40;99.90;;;;;;4996326;28;20042;-65
2021/12/01 03:50:17;;;;;;;9.75;1.98;;;9.50;99.90;;;;;;5013386;28;20050;-69
2021/12/01 03:52:43;;;;;;;10.05;2.40;;;9.50;99.90;;;;;;5015231;28;20340;-68
2021/12/01 03:55:10;;;;;;;16.48;2.40;;;9.50;99.90;;;;;;5015122;28;20065;-69
2021/12/01 03:57:36;;;;;;;19.73;2.38;;;9.40;99.90;;;;;;5016529;28;20137;-68
2021/12/01 04:00:05;;;;;;;14.70;2.60;;;9.50;99.90;;;;;;5016411;28;20140;-68
2021/12/01 04:02:32;;;;;;;11.80;2.60;;;9.40;99.90;;;;;;4998993;28;20129;-67
2021/12/01 04:04:58;;;;;;;17.08;2.83;;;9.40;99.90;;;;;;5016346;28;20050;-67
2021/12/01 04:07:23;;;;;;;14.00;2.92;;;9.40;99.90;;;;;;5016069;28;20123;-68
2021/12/01 04:09:50;;;;;;;16.95;3.25;;;9.40;99.90;;;;;;5014361;28;20068;-69
2021/12/01 04:12:17;;;;;;;13.05;3.50;;;9.50;99.90;;;;;;5016211;28;20054;-66
2021/12/01 04:14:42;;;;;;;14.80;3.08;;;9.50;99.90;;;;;;5016492;28;20038;-68
2021/12/01 04:17:08;;;;;;;20.35;3.63;;;9.40;99.90;;;;;;5015897;28;20421;-67
2021/12/01 04:19:33;;;;;;;16.60;3.45;;;9.40;99.90;;;;;;5000430;28;20054;-67
2021/12/01 04:21:59;;;;;;;21.35;3.85;;;9.40;99.90;;;;;;4996305;28;20086;-66
2021/12/01 04:24:25;;;;;;;16.17;3.35;;;9.40;99.90;;;;;;4995748;28;20375;-66
2021/12/01 04:26:51;;;;;;;10.75;3.50;;;9.40;99.90;;;;;;4996641;28;20047;-67
2021/12/01 04:29:16;;;;;;;10.90;3.35;;;9.40;99.90;;;;;;4995303;28;20497;-68
2021/12/01 04:31:42;;;;;;;15.15;4.00;;;9.40;99.90;;;;;;4995108;28;20049;-67
2021/12/01 04:34:08;;;;;;;8.10;3.20;;;9.40;99.90;;;;;;4996001;28;20359;-66
2021/12/01 04:36:41;;;;;;;6.60;3.17;;;9.40;99.90;;;;;;4995230;28;20053;-66
2021/12/01 04:39:09;;;;;;;8.57;3.58;;;9.40;99.90;;;;;;4996311;28;20367;-66
2021/12/01 04:41:52;;;;;;;9.85;3.33;;;9.40;99.90;;;;;;4996206;28;20092;-68
2021/12/01 04:44:20;;;;;;;7.93;3.03;;;9.40;99.90;;;;;;4994735;28;20069;-67
2021/12/01 04:46:47;;;;;;;5.13;3.08;;;9.40;99.90;;;;;;4995126;28;20057;-70
2021/12/01 04:49:18;;;;;;;10.32;3.85;;;9.40;99.90;;;;;;5005880;28;20418;-66
2021/12/01 04:51:49;;;;;;;8.95;4.00;;;9.40;99.90;;;;;;5014903;28;20046;-69
2021/12/01 04:54:16;;;;;;;9.70;4.53;;;9.40;99.90;;;;;;5021935;28;20085;-68
2021/12/01 04:56:44;;;;;;;8.45;4.22;;;9.40;99.90;;;;;;5017719;28;20049;-66
2021/12/01 04:59:09;;;;;;;8.80;4.25;;;9.30;99.90;;;;;;5034625;28;20428;-66
2021/12/01 05:01:36;;;;;;;9.77;4.85;;;9.30;99.90;;;;;;5035184;28;20049;-68
2021/12/01 05:04:04;;;;;;;7.40;4.35;;;9.30;99.90;;;;;;5035001;28;20042;-67
2021/12/01 05:06:29;;;;;;;7.25;4.60;;;9.40;99.90;;;;;;5007170;28;20133;-69
2021/12/01 05:08:55;;;;;;;6.85;3.95;;;9.30;99.90;;;;;;5033068;28;20141;-67
2021/12/01 05:11:21;;;;;;;7.03;4.15;;;9.30;99.90;;;;;;5013688;28;20108;-67
2021/12/01 05:13:46;;;;;;;5.25;3.28;;;9.30;99.90;;;;;;5015030;28;20061;-67
2021/12/01 05:16:12;;;;;;;7.43;3.10;;;9.40;99.90;;;;;;5014447;28;20057;-67
2021/12/01 05:18:38;;;;;;;5.25;2.95;;;9.30;99.90;;;;;;5014981;28;20172;-67
2021/12/01 05:21:04;;;;;;;6.03;3.03;;;9.30;99.90;;;;;;5016348;28;20050;-68
2021/12/01 05:23:30;;;;;;;5.82;2.53;;;9.30;99.90;;;;;;5024310;28;20098;-67
2021/12/01 05:25:55;;;;;;;4.90;2.33;;;9.30;99.90;;;;;;5024255;28;20045;-67
2021/12/01 05:28:21;;;;;;;6.47;2.60;;;9.30;99.90;;;;;;5041498;28;20045;-67
2021/12/01 05:30:47;;;;;;;4.88;2.60;;;9.40;99.90;;;;;;5024316;28;20068;-67
2021/12/01 05:33:15;;;;;;;4.65;2.80;;;9.30;99.90;;;;;;5041433;28;20492;-66
2021/12/01 05:35:42;;;;;;;5.50;2.67;;;9.30;99.90;;;;;;5024037;28;20128;-64
2021/12/01 05:38:09;;;;;;;5.53;2.70;;;9.20;99.90;;;;;;5041542;28;20478;-65
2021/12/01 05:40:35;;;;;;;4.30;2.67;;;9.20;99.90;;;;;;5023900;28;20508;-67
2021/12/01 05:43:00;;;;;;;4.93;2.88;;;9.30;99.90;;;;;;5023931;28;20053;-68
2021/12/01 05:45:26;;;;;;;4.53;2.78;;;9.20;99.90;;;;;;5022681;28;20064;-69
2021/12/01 05:47:52;;;;;;;4.82;2.70;;;9.20;99.90;;;;;;5024052;28;20339;-66
2021/12/01 05:50:18;;;;;;;4.03;2.75;;;9.20;99.90;;;;;;5041549;28;20106;-67
2021/12/01 05:52:43;;;;;;;4.68;3.10;;;9.20;99.90;;;;;;5041283;28;20124;-67
2021/12/01 05:55:10;;;;;;;6.80;3.22;;;9.20;99.90;;;;;;5023364;28;20053;-67
2021/12/01 05:57:36;;;;;;;4.60;3.00;;;9.20;99.90;;;;;;5028404;28;20056;-66
2021/12/01 06:00:04;;;;;;;4.70;3.20;;;9.20;99.90;;;;;;5006772;28;20414;-68
2021/12/01 06:02:29;;;;;;;8.95;3.30;;;9.10;99.90;;;;;;5019892;28;20108;-67
2021/12/01 06:04:55;;;;;;;6.43;3.17;;;9.10;99.90;;;;;;5003583;28;20053;-67
2021/12/01 06:07:21;;;;;;;5.35;3.30;;;9.10;99.90;;;;;;5017522;28;20045;-68
2021/12/01 06:09:46;;;;;;;5.75;3.80;;;9.10;99.90;;;;;;5002976;28;20045;-68
2021/12/01 06:12:13;;;;;;;6.72;4.00;;;9.10;99.90;;;;;;5003458;28;20045;-69
2021/12/01 06:14:43;;;;;;;7.75;4.07;;;9.10;99.90;;;;;;5004291;28;20500;-70
2021/12/01 06:17:10;;;;;;;4.90;3.60;;;9.10;99.90;;;;;;5004169;28;20064;-68
2021/12/01 06:19:37;;;;;;;8.88;4.10;;;9.00;99.90;;;;;;5003652;28;20103;-69
2021/12/01 06:22:03;;;;;;;6.38;3.95;;;9.00;99.90;;;;;;5021287;28;20061;-66
2021/12/01 06:24:29;;;;;;;7.88;4.25;;;9.00;99.90;;;;;;5019291;28;20049;-67
2021/12/01 06:26:55;;;;;;;6.28;3.67;;;9.00;99.90;;;;;;4988001;28;20046;-68
2021/12/01 06:29:20;;;;;;;5.00;3.67;;;9.00;99.90;;;;;;5003549;28;20347;-67
2021/12/01 06:31:46;;;;;;;5.10;3.47;;;9.00;99.90;;;;;;5017308;28;20454;-67
2021/12/01 06:34:12;;;;;;;5.13;3.70;;;9.00;99.90;;;;;;5018524;28;20080;-68
2021/12/01 06:36:37;;;;;;;5.82;4.00;;;9.00;99.90;;;;;;5005966;28;20041;-67
2021/12/01 06:39:05;;;;;;;5.13;3.85;;;9.00;99.90;;;;;;5019750;28;20394;-67
2021/12/01 06:41:30;;;;;;;6.32;3.70;;;8.90;99.90;;;;;;5000719;28;20053;-68
2021/12/01 06:43:56;;;;;;;5.70;3.78;;;8.90;99.90;;;;;;4999445;28;20054;-68
2021/12/01 06:46:22;;;;;;;5.95;3.45;;;8.90;99.90;;;;;;5000772;28;20067;-68
2021/12/01 06:48:48;;;;;;;4.57;3.13;;;8.90;99.90;;;;;;4999646;28;20425;-66
2021/12/01 06:51:13;;;;;;;6.00;3.13;;;8.90;99.90;;;;;;5000686;28;20103;-64
2021/12/01 06:53:39;;;;;;;5.03;2.88;;;8.90;99.90;;;;;;4999448;28;20041;-65
2021/12/01 06:56:05;;;;;;;4.15;2.95;;;8.80;99.90;;;;;;5017318;28;20132;-65
2021/12/01 06:58:31;;;;;;;5.22;3.30;;;8.80;99.90;;;;;;5000045;28;20060;-65
2021/12/01 07:00:57;;;;;;;4.28;2.22;;;8.80;99.90;;;;;;5017311;28;20046;-67
2021/12/01 07:03:22;;;;;;;4.05;2.50;;;8.80;99.90;;;;;;5016444;28;20095;-66
2021/12/01 07:05:48;;;;;;;4.10;2.67;;;8.80;99.90;;;;;;4999577;28;20053;-65
2021/12/01 07:08:14;;;;;;;3.30;2.30;;;8.80;99.90;;;;;;5004889;28;20046;-67
2021/12/01 07:10:40;;;;;;;5.65;2.47;;;8.80;99.90;;;;;;5015505;28;20112;-67
2021/12/01 07:13:05;;;;;;;5.40;3.00;;;8.80;99.90;;;;;;4998042;28;20406;-66
2021/12/01 07:15:31;;;;;;;4.28;2.50;;;8.70;99.90;;;;;;5001356;28;20104;-64
2021/12/01 07:17:56;;;;;;;3.65;2.50;;;8.70;99.90;;;;;;4986622;28;20066;-66
2021/12/01 07:20:22;;;;;;;5.40;2.70;;;8.80;99.90;;;;;;4982131;28;20046;-66
2021/12/01 07:22:48;;;;;;;3.75;2.42;;;8.70;99.90;;;;;;4998374;28;20057;-66
2021/12/01 07:25:14;;;;;;;3.70;2.20;;;8.70;99.90;;;;;;4999293;28;20489;-66
2021/12/01 07:27:41;;;;;;;4.22;2.20;;;8.70;99.90;;;;;;5017954;28;20037;-66
2021/12/01 07:30:07;;;;;;;3.72;2.47;;;8.70;99.90;;;;;;5006573;28;20060;-68
2021/12/01 07:32:33;;;;;;;4.82;2.35;;;8.70;99.90;;;;;;4998533;28;20038;-68
2021/12/01 07:34:59;;;;;;;4.60;2.60;;;8.70;99.90;;;;;;4992944;28;20144;-65
2021/12/01 07:37:25;;;;;;;4.13;2.70;;;8.70;99.90;;;;;;4998676;28;20136;-64
2021/12/01 07:39:52;;;;;;;4.47;2.80;;;8.70;99.90;;;;;;5005468;28;20413;-67
2021/12/01 07:42:18;;;;;;;3.90;2.63;;;8.70;99.90;;;;;;4999293;28;20046;-67
2021/12/01 07:44:44;;;;;;;3.63;2.53;;;8.70;99.90;;;;;;5003817;28;20413;-65
2021/12/01 07:47:11;;;;;;;7.53;3.08;;;8.80;99.90;;;;;;5015952;28;20115;-66
2021/12/01 07:49:37;;;;;;;5.45;3.42;;;8.70;99.90;;;;;;5006060;28;20092;-67
2021/12/01 07:52:06;;;;;;;7.47;4.07;;;8.70;99.90;;;;;;5016285;28;20097;-67
2021/12/01 07:54:32;;;;;;;7.75;4.40;;;8.80;99.90;;;;;;4998306;28;20062;-66
2021/12/01 07:56:59;;;;;;;5.47;3.88;;;8.80;99.90;;;;;;5000409;28;20398;-68
2021/12/01 07:59:25;;;;;;;6.50;4.13;;;8.80;99.90;;;;;;4998010;28;20489;-69
2021/12/01 08:01:50;;;;;;;6.13;4.03;;;8.80;99.90;;;;;;5011436;28;20046;-70
2021/12/01 08:04:16;;;;;;;5.65;3.97;;;8.80;99.90;;;;;;5015031;28;20073;-67
2021/12/01 08:06:44;;;;;;;9.65;3.83;;;8.80;99.90;;;;;;4997324;28;20057;-68
2021/12/01 08:09:11;;;;;;;8.10;4.28;;;8.80;99.90;;;;;;5014841;28;20383;-68
2021/12/01 08:11:38;;;;;;;7.75;4.25;;;8.80;99.90;;;;;;5000966;28;20037;-67
2021/12/01 08:14:06;;;;;;;11.52;4.50;;;8.90;99.90;;;;;;5000237;28;20486;-68
2021/12/01 08:16:33;;;;;;;8.40;5.15;;;8.80;99.90;;;;;;4997725;28;20077;-68
2021/12/01 08:18:58;;;;;;;11.25;5.90;;;8.80;99.90;;;;;;5014325;28;20168;-67
2021/12/01 08:21:24;;;;;;;7.28;5.20;;;8.90;99.90;;;;;;5015139;28;20134;-69
2021/12/01 08:23:51;;;;;;;10.68;6.10;;;8.90;99.90;;;;;;4999510;28;20042;-67
2021/12/01 08:26:17;;;;;;;9.60;6.70;;;8.90;99.90;;;;;;5013274;28;20390;-67
2021/12/01 08:28:45;;;;;;;7.40;5.88;;;8.90;99.90;;;;;;5014361;28;20056;-68
2021/12/01 08:31:12;;;;;;;11.75;6.20;;;8.80;99.90;;;;;;5014933;28;20529;-68
2021/12/01 08:33:37;;;;;;;8.80;5.82;;;8.90;99.90;;;;;;5005834;28;20049;-67
2021/12/01 08:36:03;;;;;;;9.65;5.68;;;8.90;99.90;;;;;;4997390;28;20111;-68
2021/12/01 08:38:29;;;;;;;11.23;5.80;;;8.90;99.90;;;;;;4999357;28;20065;-69
2021/12/01 08:40:54;;;;;;;15.15;5.85;;;8.90;99.90;;;;;;5014988;28;20354;-69
2021/12/01 08:43:20;;;;;;;9.45;4.95;;;8.90;99.90;;;;;;4996163;28;20459;-68
2021/12/01 08:45:45;;;;;;;6.57;4.45;;;8.90;99.90;;;;;;5001813;28;20052;-66
2021/12/01 08:48:11;;;;;;;10.32;4.18;;;8.90;99.90;;;;;;5001261;28;20054;-67
2021/12/01 08:50:37;;;;;;;8.00;4.10;;;8.90;99.90;;;;;;4997523;28;20050;-67
2021/12/01 08:53:03;;;;;;;8.60;3.60;;;8.90;99.90;;;;;;4996812;28;20042;-69
2021/12/01 08:55:29;;;;;;;10.85;3.38;;;8.90;99.90;;;;;;4996449;28;20169;-68
2021/12/01 08:57:54;;;;;;;8.13;2.92;;;8.90;99.90;;;;;;5001354;28;20106;-68
2021/12/01 09:00:21;;;;;;;10.48;3.15;;;8.90;99.90;;;;;;4996943;28;20084;-66
2021/12/01 09:02:47;;;;;;;9.85;3.00;;;8.90;99.90;;;;;;4996318;28;20049;-65
2021/12/01 09:05:13;;;;;;;17.85;3.47;;;8.90;99.90;;;;;;4996806;28;20386;-69
2021/12/01 09:07:39;;;;;;;11.32;2.72;;;8.90;99.90;;;;;;5013855;28;20050;-69
2021/12/01 09:10:06;;;;;;;7.38;2.30;;;8.90;99.90;;;;;;4979763;28;20065;-67
2021/12/01 09:12:32;;;;;;;10.75;2.58;;;9.00;99.90;;;;;;5001202;28;20131;-70
2021/12/01 09:14:58;;;;;;;11.65;2.75;;;9.00;99.90;;;;;;5004619;28;20111;-66
2021/12/01 09:17:24;;;;;;;12.85;2.40;;;9.00;99.90;;;;;;5015299;28;20050;-68
2021/12/01 09:19:51;;;;;;;14.82;2.53;;;9.00;99.90;;;;;;5014040;28;20060;-67
2021/12/01 09:22:17;;;;;;;11.10;2.30;;;9.00;99.90;;;;;;5013538;28;20103;-68
2021/12/01 09:24:43;;;;;;;13.00;2.35;;;9.00;99.90;;;;;;5013752;28;20056;-67
2021/12/01 09:27:10;;;;;;;14.80;2.20;;;9.00;99.90;;;;;;4999663;28;20103;-65
2021/12/01 09:29:35;;;;;;;10.18;2.00;;;9.00;99.90;;;;;;5014435;28;20042;-66
2021/12/01 09:32:03;;;;;;;9.52;1.80;;;9.00;99.90;;;;;;5013608;28;20046;-67
2021/12/01 09:34:28;;;;;;;12.05;2.10;;;9.10;99.90;;;;;;5013941;28;20113;-66
2021/12/01 09:36:56;;;;;;;11.88;1.90;;;9.10;99.90;;;;;;4996671;28;20077;-67
2021/12/01 09:39:22;;;;;;;17.50;2.17;;;9.00;99.90;;;;;;4996807;28;20121;-66
2021/12/01 09:41:48;;;;;;;14.52;2.35;;;9.00;99.90;;;;;;5014123;28;20128;-67
2021/12/01 09:44:14;;;;;;;11.55;2.65;;;9.00;99.90;;;;;;5013190;28;20061;-67
2021/12/01 09:46:39;;;;;;;12.52;2.42;;;9.00;99.90;;;;;;4996996;28;20046;-67
2021/12/01 09:49:05;;;;;;;11.13;1.98;;;9.00;99.90;;;;;;5009471;28;20474;-67
2021/12/01 09:51:31;;;;;;;11.63;2.03;;;9.00;99.90;;;;;;5015695;28;20501;-66
2021/12/01 09:53:57;;;;;;;9.63;1.92;;;8.90;99.90;;;;;;5000111;28;20050;-67
2021/12/01 09:56:25;;;;;;;14.73;2.15;;;8.90;99.90;;;;;;5014253;28;20112;-67
2021/12/01 09:58:50;;;;;;;13.20;2.50;;;8.90;99.90;;;;;;5007158;28;20046;-69
2021/12/01 10:01:20;;;;;;;9.13;1.98;;;8.90;99.90;;;;;;5013286;28;20048;-66
2021/12/01 10:03:47;;;;;;;12.10;2.10;;;9.00;99.90;;;;;;5001939;28;20041;-68
2021/12/01 10:06:18;;;;;;;15.73;2.53;;;9.00;99.90;;;;;;5009641;28;20053;-66
2021/12/01 10:08:49;;;;;;;13.00;1.73;;;9.00;99.90;;;;;;5014933;28;20459;-69
2021/12/01 10:11:23;;;;;;;10.80;2.00;;;9.00;99.90;;;;;;5017913;28;20466;-66
2021/12/01 10:13:50;;;;;;;13.38;1.98;;;9.00;99.90;;;;;;5017120;28;20046;-67
2021/12/01 10:16:17;;;;;;;16.35;2.65;;;9.00;99.90;;;;;;5017982;28;20065;-67
2021/12/01 10:18:45;;;;;;;11.30;2.10;;;9.00;99.90;;;;;;5017792;28;20037;-67
2021/12/01 10:21:17;;;;;;;11.25;1.80;;;8.90;99.90;;;;;;5024641;28;20068;-68
2021/12/01 10:23:47;;;;;;;13.23;2.35;;;9.00;99.90;;;;;;5037846;28;20520;-67
2021/12/01 10:26:19;;;;;;;11.43;1.83;;;9.00;99.90;;;;;;5019630;28;20111;-67
2021/12/01 10:28:51;;;;;;;13.00;2.47;;;9.00;99.90;;;;;;5037372;28;20057;-66
2021/12/01 10:31:36;;;;;;;13.57;2.22;;;9.00;99.90;;;;;;5037577;28;20461;-68
2021/12/01 10:34:15;;;;;;;12.65;2.22;;;9.10;99.90;;;;;;5037385;28;20049;-69
2021/12/01 10:36:40;;;;;;;15.48;2.30;;;9.00;99.90;;;;;;5019266;28;20052;-67
2021/12/01 10:39:07;;;;;;;13.15;2.55;;;9.00;99.90;;;;;;5002761;28;20046;-69
2021/12/01 10:41:41;;;;;;;11.45;2.30;;;9.00;99.90;;;;;;5017133;28;20057;-68
2021/12/01 10:44:16;;;;;;;16.05;2.42;;;9.00;99.90;;;;;;5017642;28;20473;-68
2021/12/01 10:46:51;;;;;;;21.42;2.78;;;9.00;99.90;;;;;;5018576;28;20042;-68
2021/12/01 10:49:30;;;;;;;17.00;2.67;;;9.00;99.90;;;;;;4984108;28;20046;-68
2021/12/01 10:51:56;;;;;;;17.80;2.38;;;9.00;99.90;;;;;;4999767;28;20200;-70
2021/12/01 10:54:21;;;;;;;14.95;2.63;;;8.90;99.90;;;;;;5018070;28;20132;-67
2021/12/01 10:57:17;;;;;;;13.85;2.60;;;8.90;99.90;;;;;;4999877;28;20053;-69
2021/12/01 10:59:52;;;;;;;11.20;2.30;;;9.00;99.90;;;;;;5017465;28;20409;-69
2021/12/01 11:02:19;;;;;;;16.80;2.60;;;8.90;99.90;;;;;;5017237;28;20050;-69
2021/12/01 11:04:51;;;;;;;13.80;2.10;;;8.90;99.90;;;;;;5000010;28;20058;-69
2021/12/01 11:07:26;;;;;;;15.05;2.65;;;8.90;99.90;;;;;;4998613;28;20045;-66
2021/12/01 11:10:15;;;;;;;13.15;2.33;;;8.80;99.90;;;;;;5015457;28;20045;-67
2021/12/01 11:12:42;;;;;;;14.40;2.35;;;8.80;99.90;;;;;;4995093;28;20107;-68
2021/12/01 11:15:21;;;;;;;13.07;2.28;;;8.80;99.90;;;;;;4993404;28;20057;-68
2021/12/01 11:17:47;;;;;;;11.57;2.17;;;8.70;99.90;;;;;;5011899;28;20050;-68
2021/12/01 11:20:38;;;;;;;12.75;2.08;;;8.80;99.90;;;;;;5015281;28;20185;-68
2021/12/01 11:23:23;;;;;;;10.50;2.35;;;8.80;99.90;;;;;;4995748;28;20065;-69
2021/12/01 11:25:54;;;;;;;12.57;2.40;;;8.80;99.90;;;;;;5013745;28;20103;-67
2021/12/01 11:28:23;;;;;;;13.02;2.88;;;8.80;99.90;;;;;;5017030;28;20060;-67
2021/12/01 11:30:52;;;;;;;11.75;2.00;;;8.80;99.90;;;;;;4998871;28;20054;-67
2021/12/01 11:33:20;;;;;;;14.70;2.50;;;8.90;99.90;;;;;;5015672;28;20045;-68
2021/12/01 11:35:48;;;;;;;17.23;2.95;;;9.00;99.90;;;;;;4997685;28;20382;-68
2021/12/01 11:38:16;;;;;;;15.18;2.75;;;9.00;99.90;;;;;;5014532;28;20041;-67
2021/12/01 11:40:42;;;;;;;14.35;2.78;;;9.00;99.90;;;;;;4998761;28;20054;-68
2021/12/01 11:43:10;;;;;;;16.17;2.47;;;8.90;99.90;;;;;;5015629;28;20067;-66
2021/12/01 11:45:38;;;;;;;23.23;3.40;;;9.00;99.90;;;;;;4981507;28;20046;-67
2021/12/01 11:48:08;;;;;;;19.27;3.08;;;9.00;99.90;;;;;;5015094;28;20103;-67
2021/12/01 11:50:38;;;;;;;16.80;2.92;;;9.10;99.90;;;;;;4998217;28;20050;-67
2021/12/01 11:53:23;;;;;;;24.17;3.78;;;9.10;99.90;;;;;;5015359;28;20085;-67
2021/12/01 11:56:11;;;;;;;15.05;2.78;;;9.10;99.90;;;;;;5005621;28;20124;-68
2021/12/01 11:58:44;;;;;;;21.73;3.28;;;9.10;99.90;;;;;;5014816;28;20096;-68
2021/12/01 12:01:22;;;;;;;20.25;4.03;;;9.00;99.90;;;;;;4996409;28;20050;-67
2021/12/01 12:04:09;;;;;;;18.15;3.75;;;8.90;99.90;;;;;;5015691;28;20129;-66
2021/12/01 12:06:36;;;;;;;19.98;3.72;;;8.80;99.90;;;;;;4997640;28;20116;-68
2021/12/01 12:09:06;;;;;;;23.50;4.47;;;8.70;99.90;;;;;;4998065;28;20145;-68
2021/12/01 12:11:36;;;;;;;29.17;4.22;;;8.60;99.90;;;;;;5000230;28;20065;-66
2021/12/01 12:14:02;;;;;;;21.42;4.07;;;8.50;99.90;;;;;;5020464;28;20061;-66
2021/12/01 12:16:28;;;;;;;23.83;3.97;;;8.50;99.90;;;;;;5015422;28;20053;-66
2021/12/01 12:18:53;;;;;;;30.88;3.80;;;8.40;99.90;;;;;;5015541;28;20052;-67
2021/12/01 12:21:26;;;;;;;29.15;4.40;;;8.30;99.90;;;;;;5015402;28;20129;-67
2021/12/01 12:24:01;;;;;;;25.48;4.20;;;8.30;99.90;;;;;;4997996;28;20049;-67
2021/12/01 12:26:38;;;;;;;29.65;4.43;;;8.30;99.90;;;;;;4998112;28;20054;-67
2021/12/01 12:29:26;;;;;;;26.17;3.90;;;8.20;99.90;;;;;;4998525;28;20041;-68
2021/12/01 12:32:13;;;;;;;24.00;3.40;;;8.20;99.90;;;;;;4997298;28;20123;-68
2021/12/01 12:34:51;;;;;;;19.80;3.60;;;8.30;99.90;;;;;;5015033;28;20038;-66
2021/12/01 12:37:28;;;;;;;22.13;4.13;;;8.20;99.90;;;;;;5015351;28;20054;-67
2021/12/01 12:39:54;;;;;;;24.02;3.30;;;8.20;99.90;;;;;;4997604;28;20057;-66
2021/12/01 12:42:20;;;;;;;23.40;3.97;;;8.10;99.90;;;;;;5015546;28;20042;-66
2021/12/01 12:44:48;;;;;;;16.75;3.70;;;8.10;99.90;;;;;;4998123;28;20144;-66
2021/12/01 12:47:16;;;;;;;14.25;3.15;;;8.20;99.90;;;;;;4997524;28;20152;-68
2021/12/01 12:49:50;;;;;;;20.25;3.10;;;8.20;99.90;;;;;;4998132;28;20417;-66
2021/12/01 12:52:27;;;;;;;19.10;3.05;;;8.20;99.90;;;;;;5014784;28;20054;-68
2021/12/01 12:54:55;;;;;;;18.00;2.80;;;8.20;99.90;;;;;;5014978;28;20050;-66
2021/12/01 12:57:45;;;;;;;16.70;2.58;;;8.30;99.90;;;;;;4997363;28;20061;-67
2021/12/01 13:00:26;;;;;;;15.40;2.55;;;8.30;99.90;;;;;;4984584;28;20375;-65
2021/12/01 13:02:54;;;;;;;17.25;3.10;;;8.30;99.90;;;;;;5014336;28;20082;-66